Aérodrome :







RETROUVEZ-NOUS SUR...

 
LOGIN :

S'inscrire | Disclaimer

   EN    FR    IT 

 









Légende :    VFR   VFR Marginal   IFR   IFR Intensif   IFR Très Intensif
Visi : 
Plafond : 
>= 8 km
>= 3000ft
5 à 8 km
1000 à 3000 ft
1500m à 5 km
500 à 1000 ft
800 à 1500m
200 à 500 ft
< 800m
< 200 ft
Symboles :   Orages  Brouillard  Fortes neiges  Fortes précipitations  Vent > 20 kt






- Altitude de l'aérodrome : 26 ft
- Code IATA : CAY


SOCA - Rochambeau

DERNIER METAR :
  • 310430Z AUTO 00000KT 9999 FEW018 25/25 Q1013

METARs EXPIRÉS :
  • 310400Z AUTO 00000KT 9999 SCT020 25/25 Q1013
  • 310330Z AUTO 16002KT 9999 SCT019 BKN031 25/25 Q1014
  • 310300Z AUTO 00000KT 9999 SCT020/// SCT030/// BKN054/// ///TCU 25/25 Q1014
  • 310230Z AUTO 00000KT 9999 BKN021 BKN030 BKN068 26/26 Q1014
  • 310200Z AUTO 00000KT 9999 SCT020 BKN045 BKN060 26/26 Q1014 TEMPO 2000 SHRA SCT012TCU BKN015

TAF TAF SOCA
Valide du 31 à 00h jusqu'au 01 à 00h UTC


302300Z 3100/3124 VRB02KT 9999 FEW023 SCT035
TEMPO 3103/3112 2000 SHRA SCT012TCU BKN015
FM311200 06010KT 9999 BKN018 BKN030
TEMPO 3112/3124 2000 SHRA SCT008 SCT013CB
FIR SOOO / Amérique du Sud



MET'MAP, la Météo Aéronautique d'un coup d'oeil ! - Copyright ORBIFLY Décembre 2007 - Disclaimer

ORBIFLY MET'MAP TEAM :

Programmation & Développement : Alexandra Zaïnal
Sur une idée originale de : Baudouin d'Aumeries
Assistance à la programmation : Marc-Olivier Méhu
Soutien technique & logistique : Manuel Goepfert

Contact : metmap@orbifly.com




SOURCES & CREDITS :

   NOAA